createdAt,value
2023-04-25T00:02:16.385Z,14.89
2023-04-25T00:04:43.586Z,14.81
2023-04-25T00:07:11.630Z,14.70
2023-04-25T00:09:38.446Z,14.60
2023-04-25T00:12:05.635Z,14.51
2023-04-25T00:14:35.262Z,14.43
2023-04-25T00:17:03.830Z,14.35
2023-04-25T00:19:31.279Z,14.28
2023-04-25T00:21:58.532Z,14.22
2023-04-25T00:24:25.367Z,14.17
2023-04-25T00:26:52.152Z,14.13
2023-04-25T00:29:18.960Z,14.11
2023-04-25T00:31:45.882Z,14.08
2023-04-25T00:34:12.863Z,14.05
2023-04-25T00:36:39.649Z,14.02
2023-04-25T00:39:07.512Z,14.00
2023-04-25T00:41:34.413Z,14.00
2023-04-25T00:44:01.845Z,14.00
2023-04-25T00:46:28.761Z,14.00
2023-04-25T00:48:56.281Z,14.00
2023-04-25T00:51:23.168Z,14.01
2023-04-25T00:53:51.270Z,14.03
2023-04-25T00:56:18.635Z,14.06
2023-04-25T00:58:45.504Z,14.09
2023-04-25T01:01:12.738Z,14.11
2023-04-25T01:03:42.070Z,14.13
2023-04-25T01:06:10.617Z,14.18
2023-04-25T01:08:38.774Z,14.23
2023-04-25T01:11:06.454Z,14.27
2023-04-25T01:13:33.802Z,14.31
2023-04-25T01:16:01.248Z,14.35
2023-04-25T01:18:28.066Z,14.39
2023-04-25T01:20:55.161Z,14.42
2023-04-25T01:23:22.710Z,14.45
2023-04-25T01:25:50.626Z,14.50
2023-04-25T01:28:17.721Z,14.53
2023-04-25T01:30:45.185Z,14.56
2023-04-25T01:33:12.817Z,14.59
2023-04-25T01:35:39.723Z,14.62
2023-04-25T01:38:06.601Z,14.65
2023-04-25T01:40:33.604Z,14.68
2023-04-25T01:43:00.356Z,14.70
2023-04-25T01:45:27.224Z,14.70
2023-04-25T01:47:54.253Z,14.69
2023-04-25T01:50:21.352Z,14.63
2023-04-25T01:52:48.810Z,14.59
2023-04-25T01:55:15.736Z,14.56
2023-04-25T01:57:52.062Z,14.52
2023-04-25T02:00:22.590Z,14.45
2023-04-25T02:02:53.017Z,14.37
2023-04-25T02:05:27.581Z,14.31
2023-04-25T02:07:54.406Z,14.24
2023-04-25T02:10:21.360Z,14.18
2023-04-25T02:13:05.704Z,14.10
2023-04-25T02:15:42.488Z,14.01
2023-04-25T02:18:19.690Z,13.95
2023-04-25T02:20:46.668Z,13.93
2023-04-25T02:23:13.662Z,13.92
2023-04-25T02:25:40.541Z,13.92
2023-04-25T02:28:07.347Z,13.91
2023-04-25T02:30:34.281Z,13.88
2023-04-25T02:33:01.270Z,13.86
2023-04-25T02:35:29.842Z,13.85
2023-04-25T02:40:15.731Z,13.87
2023-04-25T02:42:42.792Z,13.87
2023-04-25T02:45:10.514Z,13.86
2023-04-25T02:47:37.405Z,13.87
2023-04-25T02:50:04.803Z,13.87
2023-04-25T02:52:31.954Z,13.84
2023-04-25T02:55:11.239Z,13.81
2023-04-25T02:57:38.524Z,13.77
2023-04-25T03:00:06.430Z,13.75
2023-04-25T03:02:33.658Z,13.76
2023-04-25T03:05:00.437Z,13.79
2023-04-25T03:07:27.676Z,13.80
2023-04-25T03:09:54.322Z,13.81
2023-04-25T03:12:20.975Z,13.83
2023-04-25T03:14:47.664Z,13.85
2023-04-25T03:17:16.429Z,13.88
2023-04-25T03:19:43.855Z,13.91
2023-04-25T03:22:11.047Z,13.94
2023-04-25T03:24:37.901Z,13.96
2023-04-25T03:27:04.923Z,13.99
2023-04-25T03:29:31.804Z,14.01
2023-04-25T03:31:59.361Z,14.02
2023-04-25T03:34:26.495Z,14.04
2023-04-25T03:36:53.423Z,14.05
2023-04-25T03:39:20.281Z,14.07
2023-04-25T03:41:48.930Z,14.10
2023-04-25T03:44:15.769Z,14.12
2023-04-25T03:46:42.438Z,14.15
2023-04-25T03:49:09.146Z,14.17
2023-04-25T03:51:56.115Z,14.19
2023-04-25T03:54:23.004Z,14.20
2023-04-25T03:56:55.547Z,14.20
2023-04-25T03:59:23.213Z,14.17
2023-04-25T04:01:50.772Z,14.13
2023-04-25T04:04:17.817Z,14.10
2023-04-25T04:06:46.129Z,14.07
2023-04-25T04:09:24.374Z,14.06
2023-04-25T04:11:51.030Z,14.05
2023-04-25T04:14:18.161Z,14.04
2023-04-25T04:16:46.811Z,14.03
2023-04-25T04:19:13.784Z,14.04
2023-04-25T04:21:44.885Z,14.05
2023-04-25T04:24:12.097Z,14.07
2023-04-25T04:26:51.099Z,14.10
2023-04-25T04:29:30.271Z,14.12
2023-04-25T04:32:24.023Z,14.14
2023-04-25T04:34:50.640Z,14.15
2023-04-25T04:37:18.981Z,14.17
2023-04-25T04:39:46.025Z,14.19
2023-04-25T04:42:31.956Z,14.20
2023-04-25T04:44:59.008Z,14.21
2023-04-25T04:47:46.211Z,14.24
2023-04-25T04:50:48.617Z,14.25
2023-04-25T04:53:33.800Z,14.26
2023-04-25T04:56:23.963Z,14.27
2023-04-25T04:58:55.709Z,14.28
2023-04-25T05:01:48.496Z,14.27
2023-04-25T05:04:51.903Z,14.27
2023-04-25T05:07:35.093Z,14.28
2023-04-25T05:10:26.115Z,14.31
2023-04-25T05:13:22.097Z,14.36
2023-04-25T05:15:57.946Z,14.40
2023-04-25T05:18:36.732Z,14.44
2023-04-25T05:21:35.946Z,14.47
2023-04-25T05:24:02.665Z,14.47
2023-04-25T05:26:48.284Z,14.49
2023-04-25T05:29:40.346Z,14.45
2023-04-25T05:32:25.449Z,14.41
2023-04-25T05:34:52.502Z,14.42
2023-04-25T05:37:37.227Z,14.43
2023-04-25T05:40:12.138Z,14.45
2023-04-25T05:42:45.659Z,14.50
2023-04-25T05:45:21.489Z,14.53
2023-04-25T05:48:08.905Z,14.52
2023-04-25T05:50:52.189Z,14.54
2023-04-25T05:53:37.944Z,14.59
2023-04-25T05:56:05.103Z,14.64
2023-04-25T05:58:31.929Z,14.68
2023-04-25T06:01:00.033Z,14.69
2023-04-25T06:03:27.413Z,14.71
2023-04-25T06:05:54.256Z,14.75
2023-04-25T06:08:21.181Z,14.79
2023-04-25T06:10:47.978Z,14.82
2023-04-25T06:13:15.838Z,14.82
2023-04-25T06:15:43.399Z,14.83
2023-04-25T06:18:10.169Z,14.83
2023-04-25T06:20:36.812Z,14.86
2023-04-25T06:23:03.668Z,14.89
2023-04-25T06:25:38.300Z,14.92
2023-04-25T06:28:05.613Z,14.93
2023-04-25T06:30:32.812Z,14.94
2023-04-25T06:33:03.843Z,14.97
2023-04-25T06:35:31.139Z,14.99
2023-04-25T06:37:58.173Z,15.00
2023-04-25T06:40:25.333Z,15.01
2023-04-25T06:42:52.845Z,15.04
2023-04-25T06:45:39.304Z,15.06
2023-04-25T06:48:08.260Z,15.08
2023-04-25T06:50:35.193Z,15.11
2023-04-25T06:53:02.039Z,15.14
2023-04-25T06:55:30.996Z,15.19
2023-04-25T06:58:18.714Z,15.24
2023-04-25T07:01:14.790Z,15.29
2023-04-25T07:03:41.718Z,15.31
2023-04-25T07:06:18.573Z,15.33
2023-04-25T07:08:46.145Z,15.40
2023-04-25T07:11:14.118Z,15.46
2023-04-25T07:13:41.306Z,15.51
2023-04-25T07:16:08.239Z,15.55
2023-04-25T07:18:35.400Z,15.58
2023-04-25T07:21:02.390Z,15.60
2023-04-25T07:23:30.425Z,15.62
2023-04-25T07:25:59.458Z,15.66
2023-04-25T07:28:26.847Z,15.72
2023-04-25T07:30:53.587Z,15.78
2023-04-25T07:33:21.064Z,15.84
2023-04-25T07:35:48.122Z,15.90
2023-04-25T07:38:15.427Z,15.97
2023-04-25T07:40:42.247Z,16.00
2023-04-25T07:43:09.752Z,16.05
2023-04-25T07:45:46.386Z,16.09
2023-04-25T07:48:20.291Z,16.17
2023-04-25T07:50:47.349Z,16.21
2023-04-25T07:53:14.930Z,16.25
2023-04-25T07:55:51.012Z,16.33
2023-04-25T07:58:22.262Z,16.39
2023-04-25T08:00:52.276Z,16.46
2023-04-25T08:03:34.304Z,16.50
2023-04-25T08:21:19.666Z,17.09
2023-04-25T08:44:11.862Z,17.33
2023-04-25T08:46:40.133Z,17.39
2023-04-25T08:49:15.725Z,17.50
2023-04-25T08:51:50.924Z,17.57
2023-04-25T08:56:48.322Z,17.60
2023-04-25T08:59:15.678Z,17.65
2023-04-25T09:01:43.796Z,17.68
2023-04-25T09:04:11.437Z,17.72
2023-04-25T09:06:38.493Z,17.79
2023-04-25T09:09:06.414Z,17.85
2023-04-25T09:11:34.487Z,17.95
2023-04-25T09:14:15.257Z,18.02
2023-04-25T09:17:02.863Z,18.11
2023-04-25T09:19:46.368Z,18.20
2023-04-25T09:22:22.750Z,18.30
2023-04-25T09:24:51.542Z,18.38
2023-04-25T09:27:20.595Z,18.41
2023-04-25T09:29:48.873Z,18.43
2023-04-25T09:32:18.487Z,18.47
2023-04-25T09:34:53.238Z,18.52
2023-04-25T09:37:21.824Z,18.59
2023-04-25T09:40:14.750Z,18.59
2023-04-25T09:42:54.603Z,18.56
2023-04-25T09:45:21.671Z,18.54
2023-04-25T09:47:50.262Z,18.54
2023-04-25T09:50:19.368Z,18.61
2023-04-25T09:53:03.076Z,18.70
2023-04-25T09:55:34.734Z,18.81
2023-04-25T09:58:05.735Z,18.94
2023-04-25T10:00:33.473Z,19.08
2023-04-25T10:03:07.394Z,19.20
2023-04-25T10:05:53.997Z,19.20
2023-04-25T10:08:21.115Z,19.17
2023-04-25T10:10:48.533Z,19.17
2023-04-25T10:13:15.742Z,19.10
2023-04-25T10:15:42.414Z,19.01
2023-04-25T10:18:09.216Z,18.94
2023-04-25T10:20:36.102Z,18.81
2023-04-25T10:23:07.885Z,18.67
2023-04-25T10:25:35.982Z,18.55
2023-04-25T10:28:04.540Z,18.49
2023-04-25T10:30:32.118Z,18.47
2023-04-25T10:32:59.811Z,18.45
2023-04-25T10:35:30.731Z,18.39
2023-04-25T10:38:11.584Z,18.32
2023-04-25T10:40:38.934Z,18.26
2023-04-25T10:43:34.032Z,18.21
2023-04-25T10:46:01.151Z,18.17
2023-04-25T10:48:29.155Z,18.11
2023-04-25T10:51:10.667Z,18.03
2023-04-25T10:53:37.588Z,17.98
2023-04-25T10:56:20.915Z,17.84
2023-04-25T10:58:48.717Z,17.63
2023-04-25T11:01:21.509Z,17.49
2023-04-25T11:03:50.879Z,17.41
2023-04-25T11:06:37.862Z,17.35
2023-04-25T11:09:09.092Z,17.27
2023-04-25T11:11:37.087Z,17.23
2023-04-25T11:14:03.824Z,17.25
2023-04-25T11:16:32.773Z,17.27
2023-04-25T11:18:59.911Z,17.29
2023-04-25T11:21:30.003Z,17.29
2023-04-25T11:23:56.847Z,17.22
2023-04-25T11:26:25.234Z,17.17
2023-04-25T11:28:52.004Z,17.11
2023-04-25T11:31:22.856Z,17.07
2023-04-25T11:33:49.977Z,17.03
2023-04-25T11:36:17.023Z,16.98
2023-04-25T11:38:45.685Z,16.92
2023-04-25T11:41:12.993Z,16.86
2023-04-25T11:43:41.598Z,16.82
2023-04-25T11:46:10.778Z,16.81
2023-04-25T11:48:41.271Z,16.82
2023-04-25T11:51:09.121Z,16.79
2023-04-25T11:53:36.682Z,16.75
2023-04-25T11:56:12.946Z,16.68
2023-04-25T11:59:17.109Z,16.57
2023-04-25T12:01:51.991Z,16.45
2023-04-25T12:04:23.121Z,16.41
2023-04-25T12:06:54.363Z,16.42
2023-04-25T12:09:28.814Z,16.44
2023-04-25T12:11:56.408Z,16.44
2023-04-25T12:14:27.433Z,16.45
2023-04-25T12:17:02.130Z,16.48
2023-04-25T12:19:33.893Z,16.52
2023-04-25T12:22:01.829Z,16.57
2023-04-25T12:24:29.496Z,16.63
2023-04-25T12:27:01.291Z,16.71
2023-04-25T12:29:34.875Z,16.80
2023-04-25T12:32:06.244Z,16.88
2023-04-25T12:34:32.881Z,16.93
2023-04-25T12:37:00.032Z,16.97
2023-04-25T12:39:26.863Z,17.00
2023-04-25T12:41:56.349Z,17.03
2023-04-25T12:44:23.330Z,17.05
2023-04-25T12:46:50.559Z,17.06
2023-04-25T12:49:19.512Z,17.03
2023-04-25T12:51:47.205Z,16.87
2023-04-25T12:54:14.786Z,16.55
2023-04-25T12:56:41.622Z,16.20
2023-04-25T12:59:08.313Z,15.77
2023-04-25T13:01:36.481Z,15.26
2023-04-25T13:04:03.852Z,14.84
2023-04-25T13:06:31.796Z,14.49
2023-04-25T13:08:59.289Z,14.20
2023-04-25T13:11:26.468Z,14.00
2023-04-25T13:13:53.526Z,13.88
2023-04-25T13:16:22.050Z,13.84
2023-04-25T13:18:49.183Z,13.79
2023-04-25T13:21:15.849Z,13.71
2023-04-25T13:23:47.395Z,13.66
2023-04-25T13:26:14.256Z,13.51
2023-04-25T13:28:42.243Z,13.26
2023-04-25T13:31:13.975Z,12.99
2023-04-25T13:33:40.523Z,12.74
2023-04-25T13:36:07.302Z,12.55
2023-04-25T13:38:34.738Z,12.37
2023-04-25T13:41:01.716Z,12.19
2023-04-25T13:43:28.356Z,12.08
2023-04-25T13:45:55.029Z,12.02
2023-04-25T13:48:22.971Z,11.95
2023-04-25T13:50:49.616Z,11.91
2023-04-25T13:53:16.373Z,11.87
2023-04-25T13:55:43.166Z,11.85
2023-04-25T13:58:10.224Z,11.81
2023-04-25T14:00:39.230Z,11.76
2023-04-25T14:03:07.837Z,11.69
2023-04-25T14:05:38.339Z,11.62
2023-04-25T14:08:06.794Z,11.55
2023-04-25T14:10:33.866Z,11.49
2023-04-25T14:13:01.743Z,11.44
2023-04-25T14:15:29.899Z,11.38
2023-04-25T14:17:56.765Z,11.31
2023-04-25T14:20:24.301Z,11.27
2023-04-25T14:22:51.096Z,11.23
2023-04-25T14:25:17.908Z,11.18
2023-04-25T14:27:47.982Z,11.16
2023-04-25T14:30:15.026Z,11.12
2023-04-25T14:32:42.436Z,11.07
2023-04-25T14:35:09.643Z,10.99
2023-04-25T14:37:36.628Z,10.92
2023-04-25T14:40:03.736Z,10.84
2023-04-25T14:42:32.643Z,10.79
2023-04-25T14:44:59.260Z,10.74
2023-04-25T14:47:26.327Z,10.70
2023-04-25T14:49:54.409Z,10.64
2023-04-25T14:52:21.405Z,10.62
2023-04-25T14:57:14.629Z,10.70
2023-04-25T14:59:41.951Z,10.77
2023-04-25T15:02:08.884Z,10.79
2023-04-25T15:04:36.218Z,10.79
2023-04-25T15:07:03.409Z,10.73
2023-04-25T15:09:30.767Z,10.71
2023-04-25T15:11:57.999Z,10.70
2023-04-25T15:14:24.691Z,10.69
2023-04-25T15:16:51.478Z,10.61
2023-04-25T15:19:18.538Z,10.55
2023-04-25T15:21:45.356Z,10.51
2023-04-25T15:24:12.508Z,10.46
2023-04-25T15:26:39.893Z,10.41
2023-04-25T15:29:07.042Z,10.36
2023-04-25T15:31:34.159Z,10.30
2023-04-25T15:34:01.080Z,10.26
2023-04-25T15:36:28.218Z,10.24
2023-04-25T15:38:54.821Z,10.21
2023-04-25T15:41:22.028Z,10.21
2023-04-25T15:43:49.007Z,10.22
2023-04-25T15:46:16.504Z,10.23
2023-04-25T15:48:43.640Z,10.20
2023-04-25T15:51:11.195Z,10.12
2023-04-25T15:53:38.580Z,10.06
2023-04-25T15:56:05.703Z,10.01
2023-04-25T15:58:32.893Z,9.96
2023-04-25T16:00:59.833Z,9.91
2023-04-25T16:03:27.273Z,9.86
2023-04-25T16:05:54.129Z,9.82
2023-04-25T16:08:21.825Z,9.80
2023-04-25T16:10:48.607Z,9.80
2023-04-25T16:13:16.156Z,9.79
2023-04-25T16:15:42.917Z,9.78
2023-04-25T16:18:10.250Z,9.75
2023-04-25T16:20:37.111Z,9.69
2023-04-25T16:23:03.896Z,9.63
2023-04-25T16:25:30.872Z,9.58
2023-04-25T16:27:57.469Z,9.51
2023-04-25T16:30:24.170Z,9.44
2023-04-25T16:32:51.587Z,9.38
2023-04-25T16:35:18.478Z,9.34
2023-04-25T16:37:45.610Z,9.32
2023-04-25T16:40:12.472Z,9.30
2023-04-25T16:42:39.480Z,9.24
2023-04-25T16:45:06.685Z,9.19
2023-04-25T16:47:34.128Z,9.16
2023-04-25T16:50:01.067Z,9.12
2023-04-25T16:52:28.251Z,9.08
2023-04-25T16:54:55.125Z,9.04
2023-04-25T16:57:21.770Z,9.02
2023-04-25T16:59:48.547Z,9.03
2023-04-25T17:02:16.485Z,9.05
2023-04-25T17:04:43.431Z,9.07
2023-04-25T17:07:10.699Z,9.05
2023-04-25T17:09:37.684Z,9.02
2023-04-25T17:12:06.306Z,9.00
2023-04-25T17:14:35.521Z,8.94
2023-04-25T17:17:03.193Z,8.84
2023-04-25T17:19:31.156Z,8.76
2023-04-25T17:21:57.764Z,8.71
2023-04-25T17:24:24.965Z,8.68
2023-04-25T17:26:51.845Z,8.65
2023-04-25T17:29:18.879Z,8.60
2023-04-25T17:31:46.056Z,8.57
2023-04-25T17:34:17.304Z,8.55
2023-04-25T17:36:45.019Z,8.53
2023-04-25T17:39:14.188Z,8.52
2023-04-25T17:41:41.293Z,8.52
2023-04-25T17:44:08.578Z,8.50
2023-04-25T17:46:36.989Z,8.49
2023-04-25T17:49:03.749Z,8.49
2023-04-25T17:51:33.374Z,8.46
2023-04-25T17:54:00.232Z,8.43
2023-04-25T17:56:27.781Z,8.39
2023-04-25T17:58:55.288Z,8.35
2023-04-25T18:01:22.537Z,8.34
2023-04-25T18:03:50.651Z,8.32
2023-04-25T18:06:17.730Z,8.32
2023-04-25T18:08:45.230Z,8.31
2023-04-25T18:11:12.543Z,8.26
2023-04-25T18:13:40.118Z,8.20
2023-04-25T18:16:07.195Z,8.18
2023-04-25T18:18:35.353Z,8.15
2023-04-25T18:21:04.363Z,8.11
2023-04-25T18:23:33.221Z,8.07
2023-04-25T18:26:00.272Z,8.03
2023-04-25T18:28:27.786Z,7.99
2023-04-25T18:30:57.583Z,7.96
2023-04-25T18:33:25.274Z,7.94
2023-04-25T18:38:34.973Z,7.93
2023-04-25T18:41:10.663Z,7.92
2023-04-25T18:43:51.104Z,7.90
2023-04-25T18:46:21.759Z,7.84
2023-04-25T18:48:50.225Z,7.80
2023-04-25T18:51:17.498Z,7.76
2023-04-25T18:53:44.793Z,7.73
2023-04-25T18:56:13.098Z,7.70
2023-04-25T18:58:40.176Z,7.69
2023-04-25T19:01:08.526Z,7.71
2023-04-25T19:03:35.516Z,7.70
2023-04-25T19:06:04.738Z,7.67
2023-04-25T19:08:32.024Z,7.66
2023-04-25T19:11:07.643Z,7.65
2023-04-25T19:13:38.188Z,7.65
2023-04-25T19:16:04.903Z,7.65
2023-04-25T19:18:31.642Z,7.65
2023-04-25T19:20:59.671Z,7.68
2023-04-25T19:23:26.469Z,7.70
2023-04-25T19:25:53.554Z,7.67
2023-04-25T19:28:22.258Z,7.66
2023-04-25T19:30:48.881Z,7.68
2023-04-25T19:33:17.077Z,7.68
2023-04-25T19:35:44.067Z,7.68
2023-04-25T19:38:11.044Z,7.66
2023-04-25T19:40:38.300Z,7.66
2023-04-25T19:43:05.755Z,7.65
2023-04-25T19:45:33.661Z,7.62
2023-04-25T19:48:01.162Z,7.60
2023-04-25T19:50:27.863Z,7.59
2023-04-25T19:52:55.514Z,7.56
2023-04-25T19:55:22.728Z,7.54
2023-04-25T19:57:49.542Z,7.51
2023-04-25T20:00:19.847Z,7.47
2023-04-25T20:02:47.297Z,7.42
2023-04-25T20:05:15.572Z,7.39
2023-04-25T20:07:42.536Z,7.36
2023-04-25T20:10:11.955Z,7.36
2023-04-25T20:12:41.862Z,7.36
2023-04-25T20:15:11.144Z,7.35
2023-04-25T20:17:40.080Z,7.35
2023-04-25T20:20:09.582Z,7.34
2023-04-25T20:22:38.077Z,7.34
2023-04-25T20:25:06.427Z,7.32
2023-04-25T20:27:33.349Z,7.29
2023-04-25T20:30:04.054Z,7.26
2023-04-25T20:32:31.690Z,7.22
2023-04-25T20:34:58.358Z,7.22
2023-04-25T20:37:25.252Z,7.23
2023-04-25T20:39:52.212Z,7.23
2023-04-25T20:42:19.199Z,7.21
2023-04-25T20:44:45.835Z,7.22
2023-04-25T20:47:12.809Z,7.22
2023-04-25T20:49:39.736Z,7.22
2023-04-25T20:52:07.126Z,7.20
2023-04-25T20:54:33.926Z,7.16
2023-04-25T20:57:01.892Z,7.15
2023-04-25T20:59:29.026Z,7.17
2023-04-25T21:01:55.869Z,7.18
2023-04-25T21:04:23.110Z,7.20
2023-04-25T21:06:49.845Z,7.18
2023-04-25T21:09:18.102Z,7.12
2023-04-25T21:11:45.564Z,7.06
2023-04-25T21:14:12.322Z,7.02
2023-04-25T21:16:40.185Z,6.99
2023-04-25T21:19:07.003Z,6.96
2023-04-25T21:21:33.694Z,6.93
2023-04-25T21:24:00.422Z,6.91
2023-04-25T21:26:27.219Z,6.90
2023-04-25T21:28:54.352Z,6.91
2023-04-25T21:31:21.738Z,6.91
2023-04-25T21:33:48.427Z,6.91
2023-04-25T21:36:15.254Z,6.89
2023-04-25T21:38:41.850Z,6.89
2023-04-25T21:41:08.479Z,6.89
2023-04-25T21:43:35.886Z,6.90
2023-04-25T21:48:26.669Z,6.94
2023-04-25T21:50:55.122Z,7.02
2023-04-25T21:53:21.790Z,7.01
2023-04-25T21:55:48.431Z,6.98
2023-04-25T21:58:15.497Z,6.95
2023-04-25T22:00:43.822Z,6.95
2023-04-25T22:03:10.647Z,6.94
2023-04-25T22:05:37.692Z,6.90
2023-04-25T22:08:04.665Z,6.85
2023-04-25T22:10:32.869Z,6.82
2023-04-25T22:12:59.877Z,6.80
2023-04-25T22:15:26.831Z,6.79
2023-04-25T22:17:54.626Z,6.79
2023-04-25T22:20:25.628Z,6.77
2023-04-25T22:22:52.714Z,6.77
2023-04-25T22:25:20.576Z,6.75
2023-04-25T22:27:47.676Z,6.73
2023-04-25T22:30:14.596Z,6.72
2023-04-25T22:32:42.591Z,6.71
2023-04-25T22:35:10.461Z,6.68
2023-04-25T22:37:37.787Z,6.66
2023-04-25T22:40:08.517Z,6.64
2023-04-25T22:42:42.647Z,6.64
2023-04-25T22:45:10.189Z,6.65
2023-04-25T22:47:38.008Z,6.65
2023-04-25T22:50:12.376Z,6.64
2023-04-25T22:52:39.969Z,6.64
2023-04-25T22:55:06.903Z,6.64
2023-04-25T22:57:36.302Z,6.63
2023-04-25T23:00:09.951Z,6.61
2023-04-25T23:02:37.523Z,6.60
2023-04-25T23:05:06.445Z,6.59
2023-04-25T23:07:34.408Z,6.58
2023-04-25T23:10:01.419Z,6.59
2023-04-25T23:12:29.018Z,6.58
2023-04-25T23:14:55.625Z,6.55
2023-04-25T23:17:22.313Z,6.53
2023-04-25T23:19:48.985Z,6.52
2023-04-25T23:22:15.850Z,6.50
2023-04-25T23:24:43.019Z,6.49
2023-04-25T23:27:09.808Z,6.48
2023-04-25T23:29:36.478Z,6.49
2023-04-25T23:32:03.665Z,6.47
2023-04-25T23:34:31.443Z,6.45
2023-04-25T23:37:00.780Z,6.46
2023-04-25T23:39:27.729Z,6.45
2023-04-25T23:41:54.368Z,6.46
2023-04-25T23:44:21.662Z,6.47
2023-04-25T23:46:49.186Z,6.45
2023-04-25T23:49:15.845Z,6.48
2023-04-25T23:51:42.478Z,6.48
2023-04-25T23:54:09.270Z,6.47
2023-04-25T23:56:36.489Z,6.47
2023-04-25T23:59:03.545Z,6.46
